createdAt,value
2023-04-25T00:01:56.060Z,7.95
2023-04-25T00:04:23.376Z,6.95
2023-04-25T00:06:50.387Z,7.82
2023-04-25T00:09:17.114Z,7.55
2023-04-25T00:11:46.759Z,7.50
2023-04-25T00:14:13.526Z,6.55
2023-04-25T00:16:42.331Z,8.38
2023-04-25T00:19:10.585Z,6.78
2023-04-25T00:21:41.437Z,7.75
2023-04-25T00:24:08.770Z,7.10
2023-04-25T00:26:36.981Z,8.00
2023-04-25T00:29:03.739Z,7.43
2023-04-25T00:31:30.882Z,6.82
2023-04-25T00:33:57.585Z,6.70
2023-04-25T00:47:49.190Z,6.22
2023-04-25T00:50:15.902Z,6.68
2023-04-25T00:52:45.224Z,6.40
2023-04-25T00:55:12.538Z,6.70
2023-04-25T00:57:39.820Z,7.68
2023-04-25T01:00:07.761Z,5.75
2023-04-25T01:02:36.862Z,6.75
2023-04-25T01:05:04.612Z,6.53
2023-04-25T01:07:31.539Z,6.22
2023-04-25T01:09:58.172Z,6.18
2023-04-25T01:12:25.027Z,6.13
2023-04-25T01:14:51.771Z,6.82
2023-04-25T01:17:22.363Z,6.40
2023-04-25T01:19:50.066Z,7.38
2023-04-25T01:22:16.890Z,7.35
2023-04-25T01:24:43.584Z,7.22
2023-04-25T01:27:11.127Z,6.65
2023-04-25T01:29:38.246Z,6.80
2023-04-25T01:32:06.203Z,6.85
2023-04-25T01:34:33.448Z,6.82
2023-04-25T01:37:01.290Z,6.32
2023-04-25T01:39:28.025Z,6.85
2023-04-25T01:41:55.722Z,6.22
2023-04-25T01:44:24.043Z,7.88
2023-04-25T01:46:51.061Z,7.25
2023-04-25T01:49:17.845Z,6.75
2023-04-25T01:51:44.580Z,6.80
2023-04-25T01:54:11.517Z,6.13
2023-04-25T01:56:39.278Z,7.35
2023-04-25T01:59:06.712Z,7.13
2023-04-25T02:01:33.796Z,6.80
2023-04-25T02:04:00.668Z,7.65
2023-04-25T02:06:27.713Z,7.28
2023-04-25T02:08:54.534Z,6.93
2023-04-25T02:11:21.285Z,8.73
2023-04-25T02:13:48.093Z,8.23
2023-04-25T02:16:15.253Z,7.40
2023-04-25T02:18:42.026Z,7.43
2023-04-25T02:21:08.748Z,7.18
2023-04-25T02:23:35.693Z,7.18
2023-04-25T02:26:02.455Z,7.30
2023-04-25T02:28:29.294Z,7.40
2023-04-25T02:30:56.043Z,8.35
2023-04-25T02:33:23.038Z,8.15
2023-04-25T02:35:49.641Z,8.63
2023-04-25T02:38:16.388Z,7.68
2023-04-25T02:40:43.123Z,8.68
2023-04-25T02:43:09.873Z,8.07
2023-04-25T02:45:36.608Z,8.10
2023-04-25T02:48:04.323Z,8.52
2023-04-25T02:50:31.266Z,7.78
2023-04-25T02:52:57.937Z,8.63
2023-04-25T02:55:27.076Z,8.52
2023-04-25T02:57:56.467Z,8.90
2023-04-25T03:00:23.826Z,7.55
2023-04-25T03:02:50.655Z,9.95
2023-04-25T03:05:17.915Z,8.80
2023-04-25T03:07:45.777Z,9.73
2023-04-25T03:10:13.049Z,8.07
2023-04-25T03:12:39.791Z,9.57
2023-04-25T03:15:10.092Z,8.43
2023-04-25T03:17:36.853Z,8.75
2023-04-25T03:20:05.257Z,7.85
2023-04-25T03:22:32.291Z,8.90
2023-04-25T03:24:58.981Z,9.15
2023-04-25T03:27:25.853Z,8.82
2023-04-25T03:29:52.594Z,7.60
2023-04-25T03:32:19.647Z,7.05
2023-04-25T03:34:46.511Z,7.50
2023-04-25T03:37:13.588Z,7.70
2023-04-25T03:39:40.345Z,8.27
2023-04-25T03:42:07.048Z,6.95
2023-04-25T03:44:33.745Z,7.82
2023-04-25T03:47:00.627Z,8.27
2023-04-25T03:49:27.330Z,9.15
2023-04-25T03:51:54.010Z,7.03
2023-04-25T03:54:20.772Z,7.35
2023-04-25T03:56:47.617Z,7.20
2023-04-25T03:59:14.432Z,7.32
2023-04-25T04:01:41.066Z,8.23
2023-04-25T04:04:07.958Z,8.10
2023-04-25T04:06:35.385Z,6.18
2023-04-25T04:09:02.259Z,7.22
2023-04-25T04:11:29.029Z,7.35
2023-04-25T04:13:55.726Z,8.57
2023-04-25T04:16:22.449Z,7.53
2023-04-25T04:18:49.070Z,7.53
2023-04-25T04:21:16.125Z,7.15
2023-04-25T04:23:42.814Z,7.28
2023-04-25T04:26:10.213Z,7.68
2023-04-25T04:28:37.274Z,8.80
2023-04-25T04:31:05.138Z,7.60
2023-04-25T04:33:34.601Z,8.85
2023-04-25T04:36:02.386Z,10.77
2023-04-25T04:38:29.642Z,12.13
2023-04-25T04:40:57.058Z,12.85
2023-04-25T04:43:24.092Z,14.05
2023-04-25T04:45:53.729Z,14.40
2023-04-25T04:48:20.437Z,14.82
2023-04-25T04:50:47.475Z,18.80
2023-04-25T04:53:14.562Z,15.90
2023-04-25T04:55:42.283Z,14.50
2023-04-25T04:58:09.706Z,14.00
2023-04-25T05:00:36.433Z,12.20
2023-04-25T05:03:03.222Z,12.23
2023-04-25T05:05:30.025Z,11.82
2023-04-25T05:07:56.821Z,8.32
2023-04-25T05:10:23.625Z,9.15
2023-04-25T05:12:50.358Z,7.15
2023-04-25T05:15:17.510Z,8.18
2023-04-25T05:17:44.277Z,8.48
2023-04-25T05:20:11.484Z,7.55
2023-04-25T05:22:38.610Z,7.22
2023-04-25T05:25:05.817Z,7.68
2023-04-25T05:27:32.545Z,8.68
2023-04-25T05:29:59.259Z,8.45
2023-04-25T05:32:26.321Z,7.50
2023-04-25T05:34:53.684Z,7.60
2023-04-25T05:37:20.354Z,7.40
2023-04-25T05:39:47.028Z,6.85
2023-04-25T05:42:13.786Z,6.20
2023-04-25T05:44:40.644Z,5.57
2023-04-25T05:47:08.014Z,6.68
2023-04-25T05:49:35.803Z,6.10
2023-04-25T05:52:02.613Z,6.45
2023-04-25T05:54:29.307Z,6.38
2023-04-25T05:56:58.142Z,6.25
2023-04-25T05:59:24.842Z,5.03
2023-04-25T06:01:51.518Z,5.10
2023-04-25T06:04:19.668Z,4.72
2023-04-25T06:06:46.540Z,5.90
2023-04-25T06:09:14.488Z,5.13
2023-04-25T06:11:41.439Z,5.90
2023-04-25T06:14:08.639Z,5.63
2023-04-25T06:16:35.538Z,5.68
2023-04-25T06:19:02.324Z,5.82
2023-04-25T06:21:29.739Z,5.32
2023-04-25T06:23:56.596Z,4.53
2023-04-25T06:26:23.364Z,5.03
2023-04-25T06:28:50.154Z,5.03
2023-04-25T06:31:17.319Z,5.03
2023-04-25T06:33:45.338Z,5.05
2023-04-25T06:36:12.162Z,5.55
2023-04-25T06:38:38.867Z,5.13
2023-04-25T06:41:06.100Z,4.82
2023-04-25T06:43:34.692Z,5.30
2023-04-25T06:46:01.986Z,4.85
2023-04-25T06:48:29.086Z,4.82
2023-04-25T06:50:56.202Z,4.50
2023-04-25T06:53:23.023Z,4.22
2023-04-25T06:55:59.270Z,7.90
2023-04-25T06:58:27.617Z,6.05
2023-04-25T07:00:55.189Z,5.78
2023-04-25T07:03:25.813Z,5.68
2023-04-25T07:05:52.789Z,5.50
2023-04-25T07:08:20.075Z,5.63
2023-04-25T07:10:49.229Z,5.93
2023-04-25T07:13:16.513Z,5.43
2023-04-25T07:15:43.245Z,5.03
2023-04-25T07:18:10.103Z,4.57
2023-04-25T07:20:36.824Z,4.82
2023-04-25T07:23:03.718Z,4.95
2023-04-25T07:25:31.745Z,4.43
2023-04-25T07:27:58.810Z,5.22
2023-04-25T07:30:25.581Z,4.47
2023-04-25T07:32:52.536Z,5.10
2023-04-25T07:35:19.231Z,4.68
2023-04-25T07:37:46.066Z,4.13
2023-04-25T07:40:13.130Z,4.55
2023-04-25T07:42:39.846Z,4.93
2023-04-25T07:45:10.507Z,4.32
2023-04-25T07:47:37.573Z,4.82
2023-04-25T07:50:04.842Z,4.38
2023-04-25T07:52:31.752Z,5.00
2023-04-25T07:54:59.706Z,4.15
2023-04-25T07:57:26.474Z,4.85
2023-04-25T07:59:53.717Z,4.15
2023-04-25T08:02:21.072Z,4.80
2023-04-25T08:04:47.964Z,4.70
2023-04-25T08:07:17.730Z,4.22
2023-04-25T08:09:44.432Z,4.00
2023-04-25T08:12:11.081Z,5.32
2023-04-25T08:14:38.408Z,4.47
2023-04-25T08:17:05.616Z,4.95
2023-04-25T08:19:32.378Z,5.05
2023-04-25T08:21:59.166Z,4.10
2023-04-25T08:24:25.907Z,3.88
2023-04-25T08:26:52.942Z,4.13
2023-04-25T08:29:19.750Z,4.40
2023-04-25T08:31:46.835Z,5.85
2023-04-25T08:34:13.724Z,4.47
2023-04-25T08:36:40.650Z,4.97
2023-04-25T08:39:08.267Z,5.10
2023-04-25T08:41:35.707Z,5.90
2023-04-25T08:44:04.509Z,5.07
2023-04-25T08:46:32.475Z,4.30
2023-04-25T08:49:02.398Z,4.47
2023-04-25T08:51:33.019Z,4.72
2023-04-25T08:56:49.759Z,4.43
2023-04-25T08:59:16.671Z,4.68
2023-04-25T09:01:43.574Z,4.10
2023-04-25T09:04:10.532Z,4.22
2023-04-25T09:06:37.410Z,3.92
2023-04-25T09:09:06.507Z,4.55
2023-04-25T09:11:34.285Z,4.50
2023-04-25T09:14:14.188Z,4.10
2023-04-25T09:16:58.718Z,4.07
2023-04-25T09:19:40.946Z,4.20
2023-04-25T09:22:08.856Z,4.10
2023-04-25T09:24:45.257Z,4.03
2023-04-25T09:27:13.906Z,4.60
2023-04-25T09:29:42.015Z,3.45
2023-04-25T09:32:12.972Z,4.53
2023-04-25T09:34:59.243Z,3.90
2023-04-25T09:37:30.625Z,4.35
2023-04-25T09:40:06.394Z,3.63
2023-04-25T09:42:35.686Z,4.30
2023-04-25T09:45:03.553Z,4.03
2023-04-25T09:47:30.567Z,4.00
2023-04-25T09:49:57.294Z,3.70
2023-04-25T09:52:26.229Z,3.63
2023-04-25T09:54:53.863Z,3.28
2023-04-25T09:57:22.488Z,3.35
2023-04-25T09:59:51.062Z,3.08
2023-04-25T10:02:21.394Z,3.65
2023-04-25T10:04:55.740Z,4.03
2023-04-25T10:07:29.493Z,3.75
2023-04-25T10:10:04.114Z,3.53
2023-04-25T10:12:34.917Z,3.30
2023-04-25T10:15:02.588Z,3.55
2023-04-25T10:17:29.593Z,3.78
2023-04-25T10:19:56.575Z,3.70
2023-04-25T10:22:35.960Z,3.97
2023-04-25T10:25:07.240Z,3.45
2023-04-25T10:27:35.641Z,3.33
2023-04-25T10:30:11.203Z,3.45
2023-04-25T10:32:38.142Z,3.80
2023-04-25T10:35:40.193Z,3.15
2023-04-25T10:38:13.821Z,3.58
2023-04-25T10:40:40.705Z,4.13
2023-04-25T10:43:32.565Z,3.80
2023-04-25T10:46:02.540Z,3.38
2023-04-25T10:48:32.921Z,3.58
2023-04-25T10:51:13.103Z,3.72
2023-04-25T10:53:40.172Z,3.00
2023-04-25T10:56:19.124Z,3.70
2023-04-25T10:58:48.125Z,3.17
2023-04-25T11:01:20.780Z,3.30
2023-04-25T11:03:51.612Z,3.70
2023-04-25T11:06:21.698Z,3.40
2023-04-25T11:08:52.492Z,3.22
2023-04-25T11:11:19.977Z,3.70
2023-04-25T11:13:51.152Z,3.40
2023-04-25T11:16:27.413Z,3.75
2023-04-25T11:18:55.164Z,3.35
2023-04-25T11:21:21.837Z,3.33
2023-04-25T11:23:49.309Z,3.30
2023-04-25T11:26:16.417Z,3.45
2023-04-25T11:28:46.441Z,3.70
2023-04-25T11:31:13.244Z,3.70
2023-04-25T11:33:41.862Z,3.40
2023-04-25T11:36:08.724Z,3.50
2023-04-25T11:38:35.568Z,2.95
2023-04-25T11:41:02.648Z,3.70
2023-04-25T11:43:29.472Z,3.08
2023-04-25T11:45:56.121Z,2.78
2023-04-25T11:48:26.083Z,3.35
2023-04-25T11:50:55.030Z,2.70
2023-04-25T11:53:22.107Z,3.25
2023-04-25T11:55:48.963Z,2.92
2023-04-25T11:58:15.704Z,2.97
2023-04-25T12:00:50.330Z,4.07
2023-04-25T12:03:19.342Z,3.20
2023-04-25T12:05:47.384Z,3.60
2023-04-25T12:08:15.618Z,2.90
2023-04-25T12:10:44.635Z,3.00
2023-04-25T12:13:29.364Z,3.72
2023-04-25T12:15:57.643Z,3.15
2023-04-25T12:18:25.619Z,3.60
2023-04-25T12:20:54.142Z,4.00
2023-04-25T12:23:29.384Z,3.25
2023-04-25T12:25:56.949Z,3.50
2023-04-25T12:28:25.225Z,3.75
2023-04-25T12:30:56.092Z,3.15
2023-04-25T12:33:27.943Z,3.03
2023-04-25T12:36:09.337Z,3.65
2023-04-25T12:38:40.813Z,3.20
2023-04-25T12:41:07.834Z,3.45
2023-04-25T12:43:34.908Z,3.65
2023-04-25T12:46:01.971Z,3.47
2023-04-25T12:48:28.686Z,3.55
2023-04-25T12:50:55.766Z,3.13
2023-04-25T12:53:24.832Z,3.15
2023-04-25T12:55:52.049Z,3.85
2023-04-25T12:58:20.222Z,3.30
2023-04-25T13:00:47.442Z,3.03
2023-04-25T13:03:14.457Z,3.40
2023-04-25T13:05:42.349Z,3.17
2023-04-25T13:08:09.330Z,3.03
2023-04-25T13:10:37.331Z,2.78
2023-04-25T13:13:04.104Z,2.80
2023-04-25T13:15:31.859Z,3.30
2023-04-25T13:17:58.790Z,2.88
2023-04-25T13:20:26.042Z,3.38
2023-04-25T13:22:52.766Z,3.40
2023-04-25T13:25:20.025Z,2.78
2023-04-25T13:27:47.612Z,2.90
2023-04-25T13:30:14.898Z,3.47
2023-04-25T13:32:42.392Z,2.65
2023-04-25T13:35:12.309Z,3.00
2023-04-25T13:37:39.731Z,2.60
2023-04-25T13:40:12.334Z,3.15
2023-04-25T13:42:39.770Z,3.08
2023-04-25T13:45:07.477Z,3.60
2023-04-25T13:47:34.486Z,3.10
2023-04-25T13:50:01.364Z,3.38
2023-04-25T13:52:28.527Z,3.70
2023-04-25T13:54:55.440Z,3.35
2023-04-25T13:57:22.360Z,3.08
2023-04-25T13:59:49.147Z,3.40
2023-04-25T14:02:18.300Z,3.50
2023-04-25T14:04:57.913Z,3.30
2023-04-25T14:07:24.980Z,3.15
2023-04-25T14:09:51.639Z,3.25
2023-04-25T14:12:18.992Z,3.15
2023-04-25T14:14:45.686Z,3.33
2023-04-25T14:17:12.760Z,3.38
2023-04-25T14:19:44.388Z,2.92
2023-04-25T14:22:11.767Z,3.40
2023-04-25T14:24:39.306Z,3.20
2023-04-25T14:27:06.517Z,2.85
2023-04-25T14:29:33.337Z,4.18
2023-04-25T14:32:00.429Z,3.65
2023-04-25T14:34:27.412Z,3.33
2023-04-25T14:36:54.185Z,3.10
2023-04-25T14:39:21.247Z,3.40
2023-04-25T14:41:48.135Z,4.15
2023-04-25T14:44:15.108Z,3.58
2023-04-25T14:46:41.929Z,3.10
2023-04-25T14:49:09.194Z,3.53
2023-04-25T14:51:36.112Z,3.75
2023-04-25T14:54:03.289Z,3.38
2023-04-25T14:56:29.935Z,3.08
2023-04-25T14:58:56.846Z,3.60
2023-04-25T15:01:23.882Z,2.72
2023-04-25T15:03:52.693Z,3.17
2023-04-25T15:06:19.965Z,3.33
2023-04-25T15:08:46.782Z,3.35
2023-04-25T15:11:13.603Z,3.40
2023-04-25T15:13:41.532Z,3.20
2023-04-25T15:16:08.697Z,3.58
2023-04-25T15:18:35.439Z,3.55
2023-04-25T15:21:02.437Z,2.72
2023-04-25T15:23:29.824Z,2.97
2023-04-25T15:25:56.861Z,3.50
2023-04-25T15:28:23.843Z,3.10
2023-04-25T15:30:51.351Z,2.80
2023-04-25T15:33:18.089Z,3.05
2023-04-25T15:35:44.937Z,3.03
2023-04-25T15:38:12.421Z,2.85
2023-04-25T15:40:39.164Z,2.80
2023-04-25T15:43:06.239Z,3.20
2023-04-25T15:45:33.516Z,2.70
2023-04-25T15:48:00.498Z,2.38
2023-04-25T15:50:27.350Z,2.65
2023-04-25T15:52:54.377Z,2.90
2023-04-25T15:55:27.001Z,2.70
2023-04-25T15:57:53.793Z,3.10
2023-04-25T16:00:22.520Z,2.42
2023-04-25T16:02:49.857Z,2.55
2023-04-25T16:05:17.552Z,2.88
2023-04-25T16:07:45.804Z,2.42
2023-04-25T16:10:13.507Z,3.05
2023-04-25T16:12:41.106Z,2.80
2023-04-25T16:15:08.582Z,2.83
2023-04-25T16:17:35.531Z,2.85
2023-04-25T16:20:05.602Z,3.17
2023-04-25T16:22:32.574Z,3.13
2023-04-25T16:24:59.386Z,2.80
2023-04-25T16:27:26.268Z,3.20
2023-04-25T16:29:53.052Z,3.30
2023-04-25T16:32:20.120Z,3.58
2023-04-25T16:34:46.970Z,3.40
2023-04-25T16:37:14.043Z,3.78
2023-04-25T16:39:40.972Z,3.35
2023-04-25T16:42:07.622Z,3.15
2023-04-25T16:44:34.393Z,3.22
2023-04-25T16:47:01.435Z,3.47
2023-04-25T16:49:28.779Z,4.35
2023-04-25T16:51:56.239Z,3.83
2023-04-25T16:54:25.537Z,3.75
2023-04-25T16:56:52.765Z,4.10
2023-04-25T16:59:20.161Z,3.42
2023-04-25T17:01:47.002Z,4.35
2023-04-25T17:04:13.885Z,3.45
2023-04-25T17:06:40.750Z,3.30
2023-04-25T17:09:08.372Z,4.10
2023-04-25T17:11:35.201Z,3.45
2023-04-25T17:14:02.106Z,3.72
2023-04-25T17:16:39.535Z,3.78
2023-04-25T17:19:06.904Z,4.65
2023-04-25T17:21:33.724Z,3.58
2023-04-25T17:24:00.620Z,3.33
2023-04-25T17:26:27.692Z,3.75
2023-04-25T17:28:55.170Z,4.60
2023-04-25T17:31:24.082Z,3.38
2023-04-25T17:33:51.143Z,4.35
2023-04-25T17:36:18.732Z,3.72
2023-04-25T17:38:45.570Z,4.30
2023-04-25T17:41:13.460Z,4.90
2023-04-25T17:43:42.712Z,4.78
2023-04-25T17:46:09.900Z,3.47
2023-04-25T17:48:36.687Z,3.60
2023-04-25T17:51:03.732Z,4.18
2023-04-25T17:53:31.328Z,3.92
2023-04-25T17:55:58.288Z,3.97
2023-04-25T17:58:28.837Z,3.88
2023-04-25T18:00:56.026Z,4.40
2023-04-25T18:03:23.777Z,4.78
2023-04-25T18:05:50.643Z,4.15
2023-04-25T18:08:17.710Z,4.63
2023-04-25T18:10:44.499Z,4.20
2023-04-25T18:13:11.274Z,4.78
2023-04-25T18:15:38.154Z,4.03
2023-04-25T18:18:14.864Z,4.65
2023-04-25T18:20:43.821Z,4.18
2023-04-25T18:23:12.284Z,3.75
2023-04-25T18:25:39.098Z,3.75
2023-04-25T18:28:05.899Z,3.53
2023-04-25T18:30:32.889Z,3.47
2023-04-25T18:32:59.643Z,3.70
2023-04-25T18:35:27.828Z,3.95
2023-04-25T18:37:54.885Z,3.35
2023-04-25T18:40:21.913Z,4.50
2023-04-25T18:42:49.066Z,3.50
2023-04-25T18:45:16.790Z,3.90
2023-04-25T18:47:44.380Z,4.22
2023-04-25T18:50:11.872Z,5.25
2023-04-25T18:52:38.834Z,4.00
2023-04-25T18:55:06.338Z,3.83
2023-04-25T18:57:33.341Z,3.60
2023-04-25T19:00:04.913Z,3.30
2023-04-25T19:02:32.082Z,3.60
2023-04-25T19:04:59.176Z,4.05
2023-04-25T19:07:28.333Z,3.70
2023-04-25T19:09:55.191Z,3.65
2023-04-25T19:12:22.392Z,3.50
2023-04-25T19:14:50.621Z,3.53
2023-04-25T19:17:17.431Z,4.63
2023-04-25T19:19:44.240Z,4.15
2023-04-25T19:22:11.936Z,3.70
2023-04-25T19:24:38.725Z,3.72
2023-04-25T19:27:05.459Z,4.20
2023-04-25T19:29:36.196Z,3.78
2023-04-25T19:32:03.735Z,4.28
2023-04-25T19:34:30.690Z,4.55
2023-04-25T19:36:57.512Z,4.20
2023-04-25T19:39:24.309Z,4.78
2023-04-25T19:41:51.243Z,4.28
2023-04-25T19:44:18.116Z,4.38
2023-04-25T19:46:46.844Z,3.90
2023-04-25T19:49:13.675Z,4.97
2023-04-25T19:51:40.645Z,4.40
2023-04-25T19:54:07.380Z,4.50
2023-04-25T19:56:34.348Z,5.22
2023-04-25T19:59:01.351Z,4.93
2023-04-25T20:01:28.608Z,5.13
2023-04-25T20:03:56.663Z,4.05
2023-04-25T20:06:23.633Z,4.50
2023-04-25T20:08:53.102Z,4.28
2023-04-25T20:11:20.266Z,4.15
2023-04-25T20:13:47.204Z,4.88
2023-04-25T20:16:19.894Z,5.43
2023-04-25T20:18:48.875Z,4.78
2023-04-25T20:21:17.214Z,5.10
2023-04-25T20:23:44.219Z,4.75
2023-04-25T20:26:12.654Z,5.20
2023-04-25T20:28:39.800Z,4.13
2023-04-25T20:31:06.837Z,5.05
2023-04-25T20:33:35.710Z,4.78
2023-04-25T20:36:02.358Z,5.82
2023-04-25T20:38:29.335Z,4.35
2023-04-25T20:40:56.528Z,4.57
2023-04-25T20:43:23.728Z,6.05
2023-04-25T20:45:50.981Z,5.80
2023-04-25T20:48:17.865Z,4.90
2023-04-25T20:50:44.849Z,5.13
2023-04-25T20:53:12.206Z,5.65
2023-04-25T20:55:39.146Z,4.75
2023-04-25T20:58:07.227Z,5.00
2023-04-25T21:00:39.025Z,4.93
2023-04-25T21:03:07.464Z,5.13
2023-04-25T21:05:34.340Z,5.88
2023-04-25T21:08:01.214Z,5.35
2023-04-25T21:10:27.914Z,5.43
2023-04-25T21:12:55.882Z,6.05
2023-04-25T21:15:22.606Z,6.10
2023-04-25T21:17:50.236Z,5.80
2023-04-25T21:20:18.205Z,6.22
2023-04-25T21:22:54.202Z,5.72
2023-04-25T21:25:29.457Z,5.38
2023-04-25T21:27:56.372Z,5.85
2023-04-25T21:30:24.318Z,6.05
2023-04-25T21:32:51.676Z,5.43
2023-04-25T21:35:19.842Z,5.63
2023-04-25T21:37:47.057Z,5.90
2023-04-25T21:40:14.622Z,6.25
2023-04-25T21:42:42.412Z,6.38
2023-04-25T21:45:10.222Z,6.05
2023-04-25T21:47:37.469Z,8.45
2023-04-25T21:50:04.849Z,5.97
2023-04-25T21:52:32.160Z,5.43
2023-04-25T21:54:58.840Z,6.00
2023-04-25T21:57:25.651Z,6.05
2023-04-25T21:59:52.479Z,6.72
2023-04-25T22:02:19.514Z,6.72
2023-04-25T22:04:47.708Z,5.28
2023-04-25T22:07:15.242Z,6.63
2023-04-25T22:09:53.746Z,7.18
2023-04-25T22:12:23.128Z,5.70
2023-04-25T22:14:50.299Z,5.88
2023-04-25T22:17:17.965Z,5.50
2023-04-25T22:19:45.230Z,6.93
2023-04-25T22:22:11.923Z,6.72
2023-04-25T22:24:38.914Z,7.05
2023-04-25T22:27:05.882Z,6.47
2023-04-25T22:29:32.933Z,6.45
2023-04-25T22:31:59.871Z,5.40
2023-04-25T22:34:26.730Z,5.57
2023-04-25T22:36:55.033Z,5.97
2023-04-25T22:39:22.013Z,5.93
2023-04-25T22:41:49.041Z,7.60
2023-04-25T22:44:16.253Z,6.78
2023-04-25T22:46:43.343Z,6.68
2023-04-25T22:49:10.103Z,7.97
2023-04-25T22:51:37.205Z,6.75
2023-04-25T22:54:05.654Z,5.82
2023-04-25T22:56:32.797Z,6.22
2023-04-25T22:58:59.691Z,5.65
2023-04-25T23:01:28.159Z,6.10
2023-04-25T23:03:55.524Z,6.38
2023-04-25T23:06:22.938Z,6.53
2023-04-25T23:08:49.950Z,6.75
2023-04-25T23:11:16.788Z,6.88
2023-04-25T23:13:43.799Z,6.75
2023-04-25T23:16:11.153Z,5.72
2023-04-25T23:18:39.406Z,6.70
2023-04-25T23:21:10.189Z,6.43
2023-04-25T23:23:37.253Z,6.50
2023-04-25T23:26:13.357Z,6.07
2023-04-25T23:28:41.870Z,7.38
2023-04-25T23:31:10.016Z,6.40
2023-04-25T23:33:36.953Z,6.55
2023-04-25T23:36:03.861Z,6.93
2023-04-25T23:38:30.621Z,6.40
2023-04-25T23:40:57.435Z,7.68
2023-04-25T23:43:24.076Z,7.32
2023-04-25T23:45:50.926Z,6.57
2023-04-25T23:48:17.630Z,5.50
2023-04-25T23:50:44.288Z,6.72
2023-04-25T23:53:11.589Z,7.35
2023-04-25T23:55:38.395Z,7.78
2023-04-25T23:58:05.125Z,7.55
